sensor_id;sensor_type;location;lat;lon;timestamp;temperature;humidity
66373;SHT30;53168;51.146;17.120;2023-11-18T00:01:47;4.47;83.00
66373;SHT30;53168;51.146;17.120;2023-11-18T00:04:22;4.48;83.00
66373;SHT30;53168;51.146;17.120;2023-11-18T00:06:57;4.48;83.05
66373;SHT30;53168;51.146;17.120;2023-11-18T00:09:32;4.48;83.10
66373;SHT30;53168;51.146;17.120;2023-11-18T00:12:10;4.49;83.15
66373;SHT30;53168;51.146;17.120;2023-11-18T00:14:54;4.49;83.26
66373;SHT30;53168;51.146;17.120;2023-11-18T00:17:30;4.47;83.35
66373;SHT30;53168;51.146;17.120;2023-11-18T00:20:11;4.45;83.40
66373;SHT30;53168;51.146;17.120;2023-11-18T00:22:47;4.45;83.47
66373;SHT30;53168;51.146;17.120;2023-11-18T00:25:22;4.44;83.51
66373;SHT30;53168;51.146;17.120;2023-11-18T00:27:56;4.45;83.62
66373;SHT30;53168;51.146;17.120;2023-11-18T00:30:30;4.44;83.60
66373;SHT30;53168;51.146;17.120;2023-11-18T00:33:05;4.44;83.68
66373;SHT30;53168;51.146;17.120;2023-11-18T00:35:50;4.44;83.73
66373;SHT30;53168;51.146;17.120;2023-11-18T00:38:25;4.44;83.77
66373;SHT30;53168;51.146;17.120;2023-11-18T00:40:59;4.44;83.80
66373;SHT30;53168;51.146;17.120;2023-11-18T00:43:33;4.44;83.89
66373;SHT30;53168;51.146;17.120;2023-11-18T00:46:07;4.43;83.92
66373;SHT30;53168;51.146;17.120;2023-11-18T00:48:41;4.41;83.97
66373;SHT30;53168;51.146;17.120;2023-11-18T00:51:15;4.40;84.06
66373;SHT30;53168;51.146;17.120;2023-11-18T00:53:49;4.40;84.11
66373;SHT30;53168;51.146;17.120;2023-11-18T00:56:25;4.39;84.23
66373;SHT30;53168;51.146;17.120;2023-11-18T00:59:01;4.39;84.21
66373;SHT30;53168;51.146;17.120;2023-11-18T01:01:38;4.40;84.28
66373;SHT30;53168;51.146;17.120;2023-11-18T01:04:12;4.40;84.30
66373;SHT30;53168;51.146;17.120;2023-11-18T01:06:45;4.40;84.36
66373;SHT30;53168;51.146;17.120;2023-11-18T01:09:21;4.39;84.41
66373;SHT30;53168;51.146;17.120;2023-11-18T01:11:56;4.39;84.49
66373;SHT30;53168;51.146;17.120;2023-11-18T01:14:40;4.37;84.59
66373;SHT30;53168;51.146;17.120;2023-11-18T01:17:15;4.36;84.65
66373;SHT30;53168;51.146;17.120;2023-11-18T01:19:49;4.36;84.73
66373;SHT30;53168;51.146;17.120;2023-11-18T01:22:23;4.36;84.75
66373;SHT30;53168;51.146;17.120;2023-11-18T01:25:00;4.36;84.83
66373;SHT30;53168;51.146;17.120;2023-11-18T01:27:34;4.35;84.90
66373;SHT30;53168;51.146;17.120;2023-11-18T01:30:10;4.35;84.91
66373;SHT30;53168;51.146;17.120;2023-11-18T01:32:45;4.36;84.99
66373;SHT30;53168;51.146;17.120;2023-11-18T01:35:20;4.36;85.02
66373;SHT30;53168;51.146;17.120;2023-11-18T01:37:57;4.36;85.09
66373;SHT30;53168;51.146;17.120;2023-11-18T01:40:32;4.36;85.06
66373;SHT30;53168;51.146;17.120;2023-11-18T01:43:06;4.37;85.09
66373;SHT30;53168;51.146;17.120;2023-11-18T01:45:44;4.37;85.13
66373;SHT30;53168;51.146;17.120;2023-11-18T01:48:22;4.36;85.12
66373;SHT30;53168;51.146;17.120;2023-11-18T01:50:59;4.37;85.15
66373;SHT30;53168;51.146;17.120;2023-11-18T01:53:38;4.38;85.10
66373;SHT30;53168;51.146;17.120;2023-11-18T01:56:17;4.38;85.10
66373;SHT30;53168;51.146;17.120;2023-11-18T01:58:57;4.39;85.10
66373;SHT30;53168;51.146;17.120;2023-11-18T02:01:31;4.38;85.10
66373;SHT30;53168;51.146;17.120;2023-11-18T02:04:07;4.38;85.10
66373;SHT30;53168;51.146;17.120;2023-11-18T02:06:42;4.38;85.11
66373;SHT30;53168;51.146;17.120;2023-11-18T02:09:17;4.35;85.13
66373;SHT30;53168;51.146;17.120;2023-11-18T02:12:03;4.34;85.09
66373;SHT30;53168;51.146;17.120;2023-11-18T02:14:49;4.33;85.09
66373;SHT30;53168;51.146;17.120;2023-11-18T02:17:26;4.32;85.09
66373;SHT30;53168;51.146;17.120;2023-11-18T02:20:02;4.30;85.04
66373;SHT30;53168;51.146;17.120;2023-11-18T02:22:46;4.30;85.08
66373;SHT30;53168;51.146;17.120;2023-11-18T02:25:20;4.29;85.04
66373;SHT30;53168;51.146;17.120;2023-11-18T02:28:00;4.29;85.00
66373;SHT30;53168;51.146;17.120;2023-11-18T02:30:36;4.28;85.00
66373;SHT30;53168;51.146;17.120;2023-11-18T02:33:18;4.28;85.00
66373;SHT30;53168;51.146;17.120;2023-11-18T02:36:03;4.29;85.00
66373;SHT30;53168;51.146;17.120;2023-11-18T02:38:51;4.29;85.00
66373;SHT30;53168;51.146;17.120;2023-11-18T02:41:28;4.29;85.00
66373;SHT30;53168;51.146;17.120;2023-11-18T02:44:05;4.30;84.99
66373;SHT30;53168;51.146;17.120;2023-11-18T02:46:42;4.30;84.97
66373;SHT30;53168;51.146;17.120;2023-11-18T02:49:17;4.31;84.98
66373;SHT30;53168;51.146;17.120;2023-11-18T02:51:51;4.31;85.00
66373;SHT30;53168;51.146;17.120;2023-11-18T02:54:25;4.32;85.00
66373;SHT30;53168;51.146;17.120;2023-11-18T02:56:59;4.32;85.02
66373;SHT30;53168;51.146;17.120;2023-11-18T03:02:24;4.30;85.10
66373;SHT30;53168;51.146;17.120;2023-11-18T03:05:01;4.30;85.10
66373;SHT30;53168;51.146;17.120;2023-11-18T03:07:37;4.29;85.10
66373;SHT30;53168;51.146;17.120;2023-11-18T03:10:12;4.29;85.10
66373;SHT30;53168;51.146;17.120;2023-11-18T03:12:53;4.28;85.10
66373;SHT30;53168;51.146;17.120;2023-11-18T03:15:28;4.27;85.10
66373;SHT30;53168;51.146;17.120;2023-11-18T03:18:02;4.28;85.10
66373;SHT30;53168;51.146;17.120;2023-11-18T03:20:37;4.27;85.10
66373;SHT30;53168;51.146;17.120;2023-11-18T03:23:11;4.27;85.14
66373;SHT30;53168;51.146;17.120;2023-11-18T03:25:46;4.26;85.19
66373;SHT30;53168;51.146;17.120;2023-11-18T03:28:20;4.24;85.20
66373;SHT30;53168;51.146;17.120;2023-11-18T03:30:54;4.23;85.22
66373;SHT30;53168;51.146;17.120;2023-11-18T03:33:28;4.23;85.30
66373;SHT30;53168;51.146;17.120;2023-11-18T03:36:03;4.20;85.30
66373;SHT30;53168;51.146;17.120;2023-11-18T03:38:37;4.20;85.40
66373;SHT30;53168;51.146;17.120;2023-11-18T03:44:16;4.17;85.41
66373;SHT30;53168;51.146;17.120;2023-11-18T03:46:50;4.16;85.42
66373;SHT30;53168;51.146;17.120;2023-11-18T03:49:24;4.15;85.40
66373;SHT30;53168;51.146;17.120;2023-11-18T03:51:58;4.11;85.34
66373;SHT30;53168;51.146;17.120;2023-11-18T03:54:34;4.05;85.20
66373;SHT30;53168;51.146;17.120;2023-11-18T03:57:08;3.99;85.13
66373;SHT30;53168;51.146;17.120;2023-11-18T03:59:43;3.93;85.10
66373;SHT30;53168;51.146;17.120;2023-11-18T04:02:17;3.87;85.09
66373;SHT30;53168;51.146;17.120;2023-11-18T04:04:51;3.85;85.10
66373;SHT30;53168;51.146;17.120;2023-11-18T04:07:26;3.81;85.16
66373;SHT30;53168;51.146;17.120;2023-11-18T04:10:03;3.80;85.20
66373;SHT30;53168;51.146;17.120;2023-11-18T04:12:41;3.79;85.27
66373;SHT30;53168;51.146;17.120;2023-11-18T04:15:17;3.79;85.31
66373;SHT30;53168;51.146;17.120;2023-11-18T04:17:51;3.80;85.35
66373;SHT30;53168;51.146;17.120;2023-11-18T04:20:25;3.80;85.40
66373;SHT30;53168;51.146;17.120;2023-11-18T04:22:59;3.80;85.40
66373;SHT30;53168;51.146;17.120;2023-11-18T04:25:33;3.81;85.40
66373;SHT30;53168;51.146;17.120;2023-11-18T04:28:07;3.80;85.40
66373;SHT30;53168;51.146;17.120;2023-11-18T04:30:43;3.80;85.41
66373;SHT30;53168;51.146;17.120;2023-11-18T04:33:17;3.80;85.40
66373;SHT30;53168;51.146;17.120;2023-11-18T04:35:52;3.80;85.40
66373;SHT30;53168;51.146;17.120;2023-11-18T04:38:28;3.81;85.40
66373;SHT30;53168;51.146;17.120;2023-11-18T04:41:03;3.79;85.40
66373;SHT30;53168;51.146;17.120;2023-11-18T04:43:37;3.80;85.39
66373;SHT30;53168;51.146;17.120;2023-11-18T04:46:16;3.80;85.36
66373;SHT30;53168;51.146;17.120;2023-11-18T04:48:52;3.79;85.31
66373;SHT30;53168;51.146;17.120;2023-11-18T04:51:28;3.78;85.29
66373;SHT30;53168;51.146;17.120;2023-11-18T04:54:02;3.75;85.23
66373;SHT30;53168;51.146;17.120;2023-11-18T04:56:39;3.71;85.13
66373;SHT30;53168;51.146;17.120;2023-11-18T04:59:15;3.70;85.12
66373;SHT30;53168;51.146;17.120;2023-11-18T05:01:49;3.66;85.10
66373;SHT30;53168;51.146;17.120;2023-11-18T05:04:24;3.64;85.11
66373;SHT30;53168;51.146;17.120;2023-11-18T05:06:58;3.63;85.10
66373;SHT30;53168;51.146;17.120;2023-11-18T05:09:32;3.62;85.19
66373;SHT30;53168;51.146;17.120;2023-11-18T05:12:07;3.61;85.20
66373;SHT30;53168;51.146;17.120;2023-11-18T05:14:41;3.61;85.28
66373;SHT30;53168;51.146;17.120;2023-11-18T05:17:16;3.62;85.30
66373;SHT30;53168;51.146;17.120;2023-11-18T05:19:50;3.63;85.32
66373;SHT30;53168;51.146;17.120;2023-11-18T05:22:24;3.65;85.37
66373;SHT30;53168;51.146;17.120;2023-11-18T05:24:58;3.68;85.40
66373;SHT30;53168;51.146;17.120;2023-11-18T05:27:33;3.69;85.41
66373;SHT30;53168;51.146;17.120;2023-11-18T05:30:08;3.71;85.43
66373;SHT30;53168;51.146;17.120;2023-11-18T05:32:46;3.73;85.50
66373;SHT30;53168;51.146;17.120;2023-11-18T05:35:20;3.73;85.50
66373;SHT30;53168;51.146;17.120;2023-11-18T05:37:59;3.73;85.50
66373;SHT30;53168;51.146;17.120;2023-11-18T05:40:34;3.74;85.49
66373;SHT30;53168;51.146;17.120;2023-11-18T05:43:14;3.74;85.50
66373;SHT30;53168;51.146;17.120;2023-11-18T05:45:53;3.74;85.50
66373;SHT30;53168;51.146;17.120;2023-11-18T05:48:47;3.75;85.50
66373;SHT30;53168;51.146;17.120;2023-11-18T05:51:24;3.76;85.48
66373;SHT30;53168;51.146;17.120;2023-11-18T05:54:00;3.76;85.41
66373;SHT30;53168;51.146;17.120;2023-11-18T05:56:34;3.77;85.40
66373;SHT30;53168;51.146;17.120;2023-11-18T05:59:09;3.77;85.31
66373;SHT30;53168;51.146;17.120;2023-11-18T06:01:44;3.76;85.30
66373;SHT30;53168;51.146;17.120;2023-11-18T06:04:19;3.76;85.27
66373;SHT30;53168;51.146;17.120;2023-11-18T06:06:53;3.75;85.21
66373;SHT30;53168;51.146;17.120;2023-11-18T06:09:28;3.76;85.20
66373;SHT30;53168;51.146;17.120;2023-11-18T06:12:02;3.76;85.20
66373;SHT30;53168;51.146;17.120;2023-11-18T06:14:40;3.76;85.19
66373;SHT30;53168;51.146;17.120;2023-11-18T06:17:17;3.78;85.09
66373;SHT30;53168;51.146;17.120;2023-11-18T06:19:51;3.79;84.96
66373;SHT30;53168;51.146;17.120;2023-11-18T06:22:28;3.80;84.87
66373;SHT30;53168;51.146;17.120;2023-11-18T06:25:02;3.79;84.81
66373;SHT30;53168;51.146;17.120;2023-11-18T06:27:40;3.81;84.80
66373;SHT30;53168;51.146;17.120;2023-11-18T06:30:18;3.80;84.74
66373;SHT30;53168;51.146;17.120;2023-11-18T06:33:05;3.82;84.70
66373;SHT30;53168;51.146;17.120;2023-11-18T06:35:44;3.83;84.61
66373;SHT30;53168;51.146;17.120;2023-11-18T06:38:25;3.85;84.60
66373;SHT30;53168;51.146;17.120;2023-11-18T06:41:03;3.86;84.55
66373;SHT30;53168;51.146;17.120;2023-11-18T06:43:46;3.88;84.49
66373;SHT30;53168;51.146;17.120;2023-11-18T06:46:32;3.89;84.47
66373;SHT30;53168;51.146;17.120;2023-11-18T06:49:09;3.89;84.43
66373;SHT30;53168;51.146;17.120;2023-11-18T06:51:46;3.90;84.41
66373;SHT30;53168;51.146;17.120;2023-11-18T06:54:35;3.91;84.50
66373;SHT30;53168;51.146;17.120;2023-11-18T06:57:09;3.94;84.50
66373;SHT30;53168;51.146;17.120;2023-11-18T06:59:47;3.96;84.48
66373;SHT30;53168;51.146;17.120;2023-11-18T07:02:24;3.99;84.40
66373;SHT30;53168;51.146;17.120;2023-11-18T07:05:00;4.01;84.40
66373;SHT30;53168;51.146;17.120;2023-11-18T07:07:34;4.03;84.40
66373;SHT30;53168;51.146;17.120;2023-11-18T07:10:09;4.02;84.31
66373;SHT30;53168;51.146;17.120;2023-11-18T07:12:44;4.03;84.26
66373;SHT30;53168;51.146;17.120;2023-11-18T07:15:18;4.03;84.19
66373;SHT30;53168;51.146;17.120;2023-11-18T07:17:52;4.04;84.17
66373;SHT30;53168;51.146;17.120;2023-11-18T07:20:26;4.09;84.14
66373;SHT30;53168;51.146;17.120;2023-11-18T07:23:19;4.13;84.07
66373;SHT30;53168;51.146;17.120;2023-11-18T07:26:13;4.14;84.00
66373;SHT30;53168;51.146;17.120;2023-11-18T07:28:53;4.16;84.00
66373;SHT30;53168;51.146;17.120;2023-11-18T07:31:30;4.17;83.88
66373;SHT30;53168;51.146;17.120;2023-11-18T07:34:23;4.19;83.80
66373;SHT30;53168;51.146;17.120;2023-11-18T07:39:50;4.23;83.71
66373;SHT30;53168;51.146;17.120;2023-11-18T07:42:56;4.26;83.66
66373;SHT30;53168;51.146;17.120;2023-11-18T07:45:40;4.30;83.61
66373;SHT30;53168;51.146;17.120;2023-11-18T07:48:33;4.32;83.59
66373;SHT30;53168;51.146;17.120;2023-11-18T07:51:19;4.33;83.36
66373;SHT30;53168;51.146;17.120;2023-11-18T07:53:54;4.31;83.15
66373;SHT30;53168;51.146;17.120;2023-11-18T07:56:27;4.34;83.21
66373;SHT30;53168;51.146;17.120;2023-11-18T07:59:03;4.34;83.13
66373;SHT30;53168;51.146;17.120;2023-11-18T08:01:41;4.36;83.17
66373;SHT30;53168;51.146;17.120;2023-11-18T08:04:17;4.40;83.20
66373;SHT30;53168;51.146;17.120;2023-11-18T08:06:52;4.44;83.20
66373;SHT30;53168;51.146;17.120;2023-11-18T08:09:29;4.45;83.11
66373;SHT30;53168;51.146;17.120;2023-11-18T08:12:11;4.48;83.10
66373;SHT30;53168;51.146;17.120;2023-11-18T08:14:46;4.48;83.07
66373;SHT30;53168;51.146;17.120;2023-11-18T08:17:40;4.51;83.10
66373;SHT30;53168;51.146;17.120;2023-11-18T08:20:24;4.56;83.11
66373;SHT30;53168;51.146;17.120;2023-11-18T08:23:07;4.59;82.97
66373;SHT30;53168;51.146;17.120;2023-11-18T08:25:42;4.66;82.88
66373;SHT30;53168;51.146;17.120;2023-11-18T08:28:23;4.73;82.84
66373;SHT30;53168;51.146;17.120;2023-11-18T08:30:57;4.79;82.75
66373;SHT30;53168;51.146;17.120;2023-11-18T08:33:45;4.86;82.70
66373;SHT30;53168;51.146;17.120;2023-11-18T08:36:20;4.92;82.52
66373;SHT30;53168;51.146;17.120;2023-11-18T08:39:13;4.97;82.40
66373;SHT30;53168;51.146;17.120;2023-11-18T08:42:14;5.01;82.36
66373;SHT30;53168;51.146;17.120;2023-11-18T08:44:56;5.09;82.34
66373;SHT30;53168;51.146;17.120;2023-11-18T08:48:07;5.14;82.14
66373;SHT30;53168;51.146;17.120;2023-11-18T08:50:46;5.15;82.04
66373;SHT30;53168;51.146;17.120;2023-11-18T08:53:20;5.12;81.80
66373;SHT30;53168;51.146;17.120;2023-11-18T08:56:00;5.04;81.82
66373;SHT30;53168;51.146;17.120;2023-11-18T09:05:26;5.03;82.18
66373;SHT30;53168;51.146;17.120;2023-11-18T09:08:29;5.01;82.13
66373;SHT30;53168;51.146;17.120;2023-11-18T09:11:23;4.97;82.05
66373;SHT30;53168;51.146;17.120;2023-11-18T09:14:24;4.91;82.07
66373;SHT30;53168;51.146;17.120;2023-11-18T09:17:01;4.86;82.16
66373;SHT30;53168;51.146;17.120;2023-11-18T09:19:52;4.82;82.19
66373;SHT30;53168;51.146;17.120;2023-11-18T09:22:48;4.80;82.25
66373;SHT30;53168;51.146;17.120;2023-11-18T09:26:07;4.78;82.30
66373;SHT30;53168;51.146;17.120;2023-11-18T09:28:47;4.76;82.30
66373;SHT30;53168;51.146;17.120;2023-11-18T09:31:52;4.74;82.33
66373;SHT30;53168;51.146;17.120;2023-11-18T09:34:31;4.74;82.41
66373;SHT30;53168;51.146;17.120;2023-11-18T09:37:15;4.75;82.48
66373;SHT30;53168;51.146;17.120;2023-11-18T09:40:44;4.75;82.50
66373;SHT30;53168;51.146;17.120;2023-11-18T09:44:25;4.75;82.50
66373;SHT30;53168;51.146;17.120;2023-11-18T09:47:29;4.76;82.42
66373;SHT30;53168;51.146;17.120;2023-11-18T09:51:20;4.81;82.34
66373;SHT30;53168;51.146;17.120;2023-11-18T09:58:09;4.93;82.10
66373;SHT30;53168;51.146;17.120;2023-11-18T10:01:04;5.00;82.04
66373;SHT30;53168;51.146;17.120;2023-11-18T10:03:47;5.05;82.00
66373;SHT30;53168;51.146;17.120;2023-11-18T10:06:31;5.11;81.95
66373;SHT30;53168;51.146;17.120;2023-11-18T10:09:24;5.12;81.80
66373;SHT30;53168;51.146;17.120;2023-11-18T10:12:10;5.13;81.68
66373;SHT30;53168;51.146;17.120;2023-11-18T10:15:09;5.13;81.46
66373;SHT30;53168;51.146;17.120;2023-11-18T10:20:59;5.09;81.20
66373;SHT30;53168;51.146;17.120;2023-11-18T10:23:59;5.08;81.21
66373;SHT30;53168;51.146;17.120;2023-11-18T10:26:41;5.10;81.22
66373;SHT30;53168;51.146;17.120;2023-11-18T10:32:59;5.12;80.96
66373;SHT30;53168;51.146;17.120;2023-11-18T10:36:18;5.10;80.57
66373;SHT30;53168;51.146;17.120;2023-11-18T10:51:23;5.15;80.28
66373;SHT30;53168;51.146;17.120;2023-11-18T10:54:52;5.19;80.23
66373;SHT30;53168;51.146;17.120;2023-11-18T10:57:55;5.22;80.10
66373;SHT30;53168;51.146;17.120;2023-11-18T11:00:52;5.24;80.07
66373;SHT30;53168;51.146;17.120;2023-11-18T11:03:32;5.26;80.09
66373;SHT30;53168;51.146;17.120;2023-11-18T11:06:26;5.30;80.20
66373;SHT30;53168;51.146;17.120;2023-11-18T11:09:16;5.34;80.17
66373;SHT30;53168;51.146;17.120;2023-11-18T11:11:56;5.36;80.19
66373;SHT30;53168;51.146;17.120;2023-11-18T11:14:42;5.39;80.17
66373;SHT30;53168;51.146;17.120;2023-11-18T11:18:11;5.44;80.21
66373;SHT30;53168;51.146;17.120;2023-11-18T11:21:30;5.47;80.10
66373;SHT30;53168;51.146;17.120;2023-11-18T11:25:14;5.45;80.21
66373;SHT30;53168;51.146;17.120;2023-11-18T11:28:22;5.31;80.38
66373;SHT30;53168;51.146;17.120;2023-11-18T11:31:34;5.17;80.59
66373;SHT30;53168;51.146;17.120;2023-11-18T11:34:47;5.06;80.81
66373;SHT30;53168;51.146;17.120;2023-11-18T11:37:42;4.94;81.00
66373;SHT30;53168;51.146;17.120;2023-11-18T11:41:17;4.82;81.07
66373;SHT30;53168;51.146;17.120;2023-11-18T11:44:40;4.73;81.26
66373;SHT30;53168;51.146;17.120;2023-11-18T11:47:16;4.70;81.30
66373;SHT30;53168;51.146;17.120;2023-11-18T11:50:11;4.68;81.36
66373;SHT30;53168;51.146;17.120;2023-11-18T11:53:11;4.70;81.38
66373;SHT30;53168;51.146;17.120;2023-11-18T11:56:03;4.76;81.40
66373;SHT30;53168;51.146;17.120;2023-11-18T11:58:45;4.83;81.29
66373;SHT30;53168;51.146;17.120;2023-11-18T12:01:38;4.96;81.21
66373;SHT30;53168;51.146;17.120;2023-11-18T12:04:33;5.32;81.07
66373;SHT30;53168;51.146;17.120;2023-11-18T12:07:16;5.70;80.44
66373;SHT30;53168;51.146;17.120;2023-11-18T12:10:07;5.87;79.95
66373;SHT30;53168;51.146;17.120;2023-11-18T12:13:11;6.16;79.77
66373;SHT30;53168;51.146;17.120;2023-11-18T12:16:18;6.83;78.92
66373;SHT30;53168;51.146;17.120;2023-11-18T12:30:56;6.31;78.74
66373;SHT30;53168;51.146;17.120;2023-11-18T12:34:15;6.24;78.90
66373;SHT30;53168;51.146;17.120;2023-11-18T12:41:35;6.33;78.16
66373;SHT30;53168;51.146;17.120;2023-11-18T12:44:33;6.78;77.72
66373;SHT30;53168;51.146;17.120;2023-11-18T12:47:19;7.41;76.69
66373;SHT30;53168;51.146;17.120;2023-11-18T12:51:20;8.19;75.42
66373;SHT30;53168;51.146;17.120;2023-11-18T12:55:04;8.59;75.00
66373;SHT30;53168;51.146;17.120;2023-11-18T12:58:20;8.72;74.55
66373;SHT30;53168;51.146;17.120;2023-11-18T13:01:35;8.74;74.43
66373;SHT30;53168;51.146;17.120;2023-11-18T13:04:20;8.68;74.31
66373;SHT30;53168;51.146;17.120;2023-11-18T13:07:42;8.69;74.57
66373;SHT30;53168;51.146;17.120;2023-11-18T13:10:42;8.67;74.32
66373;SHT30;53168;51.146;17.120;2023-11-18T13:17:33;7.89;74.91
66373;SHT30;53168;51.146;17.120;2023-11-18T13:50:55;6.03;76.29
66373;SHT30;53168;51.146;17.120;2023-11-18T13:53:49;5.97;76.39
66373;SHT30;53168;51.146;17.120;2023-11-18T13:56:35;5.93;76.41
66373;SHT30;53168;51.146;17.120;2023-11-18T14:00:00;5.87;76.45
66373;SHT30;53168;51.146;17.120;2023-11-18T14:02:47;5.82;76.51
66373;SHT30;53168;51.146;17.120;2023-11-18T14:16:10;5.75;76.71
66373;SHT30;53168;51.146;17.120;2023-11-18T14:22:35;5.74;76.76
66373;SHT30;53168;51.146;17.120;2023-11-18T14:25:16;5.72;76.80
66373;SHT30;53168;51.146;17.120;2023-11-18T14:28:27;5.69;76.84
66373;SHT30;53168;51.146;17.120;2023-11-18T14:31:19;5.62;76.80
66373;SHT30;53168;51.146;17.120;2023-11-18T14:38:07;5.46;77.00
66373;SHT30;53168;51.146;17.120;2023-11-18T14:40:46;5.39;77.06
66373;SHT30;53168;51.146;17.120;2023-11-18T14:43:17;5.35;77.19
66373;SHT30;53168;51.146;17.120;2023-11-18T14:46:42;5.29;77.21
66373;SHT30;53168;51.146;17.120;2023-11-18T14:49:30;5.22;77.20
66373;SHT30;53168;51.146;17.120;2023-11-18T14:52:04;5.17;77.30
66373;SHT30;53168;51.146;17.120;2023-11-18T14:54:39;5.13;77.34
66373;SHT30;53168;51.146;17.120;2023-11-18T14:57:24;5.08;77.40
66373;SHT30;53168;51.146;17.120;2023-11-18T14:59:54;5.02;77.44
66373;SHT30;53168;51.146;17.120;2023-11-18T15:02:24;4.97;77.51
66373;SHT30;53168;51.146;17.120;2023-11-18T15:04:54;4.92;77.59
66373;SHT30;53168;51.146;17.120;2023-11-18T15:07:28;4.88;77.60
66373;SHT30;53168;51.146;17.120;2023-11-18T15:10:00;4.87;77.70
66373;SHT30;53168;51.146;17.120;2023-11-18T15:12:37;4.84;77.72
66373;SHT30;53168;51.146;17.120;2023-11-18T15:15:17;4.80;77.72
66373;SHT30;53168;51.146;17.120;2023-11-18T15:17:49;4.78;77.78
66373;SHT30;53168;51.146;17.120;2023-11-18T15:20:21;4.77;77.80
66373;SHT30;53168;51.146;17.120;2023-11-18T15:22:53;4.76;77.84
66373;SHT30;53168;51.146;17.120;2023-11-18T15:25:23;4.74;77.85
66373;SHT30;53168;51.146;17.120;2023-11-18T15:28:03;4.70;77.87
66373;SHT30;53168;51.146;17.120;2023-11-18T15:30:53;4.69;77.83
66373;SHT30;53168;51.146;17.120;2023-11-18T15:33:24;4.65;77.74
66373;SHT30;53168;51.146;17.120;2023-11-18T15:35:58;4.62;77.70
66373;SHT30;53168;51.146;17.120;2023-11-18T15:38:36;4.61;77.71
66373;SHT30;53168;51.146;17.120;2023-11-18T15:41:31;4.61;77.78
66373;SHT30;53168;51.146;17.120;2023-11-18T15:44:10;4.60;77.80
66373;SHT30;53168;51.146;17.120;2023-11-18T15:46:53;4.58;77.80
66373;SHT30;53168;51.146;17.120;2023-11-18T15:49:23;4.56;77.80
66373;SHT30;53168;51.146;17.120;2023-11-18T15:51:54;4.52;77.80
66373;SHT30;53168;51.146;17.120;2023-11-18T15:54:26;4.51;77.80
66373;SHT30;53168;51.146;17.120;2023-11-18T15:56:58;4.50;77.82
66373;SHT30;53168;51.146;17.120;2023-11-18T15:59:54;4.50;77.82
66373;SHT30;53168;51.146;17.120;2023-11-18T16:02:43;4.49;77.87
66373;SHT30;53168;51.146;17.120;2023-11-18T16:05:17;4.49;77.90
66373;SHT30;53168;51.146;17.120;2023-11-18T16:07:52;4.47;77.95
66373;SHT30;53168;51.146;17.120;2023-11-18T16:10:26;4.47;78.00
66373;SHT30;53168;51.146;17.120;2023-11-18T16:13:00;4.46;78.00
66373;SHT30;53168;51.146;17.120;2023-11-18T16:15:40;4.47;78.04
66373;SHT30;53168;51.146;17.120;2023-11-18T16:18:12;4.49;78.09
66373;SHT30;53168;51.146;17.120;2023-11-18T16:20:43;4.50;78.13
66373;SHT30;53168;51.146;17.120;2023-11-18T16:23:15;4.50;78.20
66373;SHT30;53168;51.146;17.120;2023-11-18T16:25:50;4.51;78.20
66373;SHT30;53168;51.146;17.120;2023-11-18T16:33:17;4.54;78.10
66373;SHT30;53168;51.146;17.120;2023-11-18T16:36:06;4.56;78.10
66373;SHT30;53168;51.146;17.120;2023-11-18T16:38:48;4.58;78.16
66373;SHT30;53168;51.146;17.120;2023-11-18T16:41:30;4.60;78.28
66373;SHT30;53168;51.146;17.120;2023-11-18T16:44:17;4.61;78.37
66373;SHT30;53168;51.146;17.120;2023-11-18T16:46:59;4.61;78.41
66373;SHT30;53168;51.146;17.120;2023-11-18T16:50:18;4.62;78.47
66373;SHT30;53168;51.146;17.120;2023-11-18T16:53:02;4.62;78.43
66373;SHT30;53168;51.146;17.120;2023-11-18T16:55:49;4.62;78.43
66373;SHT30;53168;51.146;17.120;2023-11-18T16:58:43;4.63;78.46
66373;SHT30;53168;51.146;17.120;2023-11-18T17:01:24;4.65;78.50
66373;SHT30;53168;51.146;17.120;2023-11-18T17:04:16;4.65;78.43
66373;SHT30;53168;51.146;17.120;2023-11-18T17:07:17;4.63;78.43
66373;SHT30;53168;51.146;17.120;2023-11-18T17:09:57;4.63;78.42
66373;SHT30;53168;51.146;17.120;2023-11-18T17:12:32;4.61;78.40
66373;SHT30;53168;51.146;17.120;2023-11-18T17:15:08;4.59;78.40
66373;SHT30;53168;51.146;17.120;2023-11-18T17:17:49;4.59;78.46
66373;SHT30;53168;51.146;17.120;2023-11-18T17:20:35;4.59;78.52
66373;SHT30;53168;51.146;17.120;2023-11-18T17:23:09;4.58;78.52
66373;SHT30;53168;51.146;17.120;2023-11-18T17:25:46;4.53;78.60
66373;SHT30;53168;51.146;17.120;2023-11-18T17:28:33;4.51;78.67
66373;SHT30;53168;51.146;17.120;2023-11-18T17:31:12;4.49;78.71
66373;SHT30;53168;51.146;17.120;2023-11-18T17:34:06;4.48;78.78
66373;SHT30;53168;51.146;17.120;2023-11-18T17:36:57;4.47;78.87
66373;SHT30;53168;51.146;17.120;2023-11-18T17:40:15;4.45;78.85
66373;SHT30;53168;51.146;17.120;2023-11-18T17:43:11;4.45;78.90
66373;SHT30;53168;51.146;17.120;2023-11-18T17:56:32;4.45;79.00
66373;SHT30;53168;51.146;17.120;2023-11-18T17:59:24;4.45;79.00
66373;SHT30;53168;51.146;17.120;2023-11-18T18:02:15;4.45;79.00
66373;SHT30;53168;51.146;17.120;2023-11-18T18:05:03;4.45;79.03
66373;SHT30;53168;51.146;17.120;2023-11-18T18:07:50;4.43;79.10
66373;SHT30;53168;51.146;17.120;2023-11-18T18:11:04;4.44;79.10
66373;SHT30;53168;51.146;17.120;2023-11-18T18:13:49;4.42;79.11
66373;SHT30;53168;51.146;17.120;2023-11-18T18:16:35;4.41;79.10
66373;SHT30;53168;51.146;17.120;2023-11-18T19:04:37;4.13;79.59
66373;SHT30;53168;51.146;17.120;2023-11-18T19:07:28;4.01;79.69
66373;SHT30;53168;51.146;17.120;2023-11-18T19:10:17;3.91;79.78
66373;SHT30;53168;51.146;17.120;2023-11-18T19:20:10;3.66;80.23
66373;SHT30;53168;51.146;17.120;2023-11-18T19:22:46;3.66;80.32
66373;SHT30;53168;51.146;17.120;2023-11-18T19:25:23;3.68;80.40
66373;SHT30;53168;51.146;17.120;2023-11-18T19:28:06;3.73;80.47
66373;SHT30;53168;51.146;17.120;2023-11-18T19:30:57;3.76;80.53
66373;SHT30;53168;51.146;17.120;2023-11-18T19:33:34;3.81;80.60
66373;SHT30;53168;51.146;17.120;2023-11-18T19:36:10;3.84;80.61
66373;SHT30;53168;51.146;17.120;2023-11-18T19:38:49;3.87;80.61
66373;SHT30;53168;51.146;17.120;2023-11-18T19:41:25;3.89;80.63
66373;SHT30;53168;51.146;17.120;2023-11-18T19:44:03;3.91;80.66
66373;SHT30;53168;51.146;17.120;2023-11-18T19:46:38;3.92;80.69
66373;SHT30;53168;51.146;17.120;2023-11-18T19:49:22;3.92;80.70
66373;SHT30;53168;51.146;17.120;2023-11-18T19:52:10;3.95;80.70
66373;SHT30;53168;51.146;17.120;2023-11-18T19:54:46;3.97;80.74
66373;SHT30;53168;51.146;17.120;2023-11-18T19:57:37;3.98;80.80
66373;SHT30;53168;51.146;17.120;2023-11-18T20:04:48;4.01;80.88
66373;SHT30;53168;51.146;17.120;2023-11-18T20:07:30;4.00;80.90
66373;SHT30;53168;51.146;17.120;2023-11-18T20:10:17;4.02;80.97
66373;SHT30;53168;51.146;17.120;2023-11-18T20:12:55;4.03;81.00